Time;durP1;ratioP1;P1;durP2;ratioP2;P2;SDS_P1;SDS_P2;PMS_P1;PMS_P2;Temp;Humidity;BMP_temperature;BMP_pressure;BME280_temperature;BME280_humidity;BME280_pressure;Samples;Min_cycle;Max_cycle;Signal;HPM_P1;HPM_P2
2022/06/11 00:02:17;;;;;;;4.30;2.78;;;17.30;99.90;;;;;;4986614;28;20048;-73
2022/06/11 00:04:43;;;;;;;5.95;3.15;;;17.30;99.90;;;;;;4986241;28;20051;-73
2022/06/11 00:07:13;;;;;;;5.03;3.30;;;17.30;99.90;;;;;;4976357;28;20046;-74
2022/06/11 00:09:40;;;;;;;5.32;3.28;;;17.30;99.90;;;;;;4978682;28;20069;-73
2022/06/11 00:12:07;;;;;;;4.85;2.88;;;17.30;99.90;;;;;;4980829;28;20058;-74
2022/06/11 00:14:34;;;;;;;5.60;3.13;;;17.30;99.90;;;;;;4982701;28;20077;-74
2022/06/11 00:17:03;;;;;;;3.53;2.83;;;17.30;99.90;;;;;;4964969;28;20062;-75
2022/06/11 00:19:29;;;;;;;4.47;2.80;;;17.20;99.90;;;;;;4976283;28;20057;-74
2022/06/11 00:21:56;;;;;;;5.00;2.75;;;17.30;99.90;;;;;;4984509;28;20417;-73
2022/06/11 00:24:23;;;;;;;4.88;3.03;;;17.20;99.90;;;;;;4980149;28;20068;-72
2022/06/11 00:26:51;;;;;;;4.85;2.78;;;17.20;99.90;;;;;;4986808;28;20042;-76
2022/06/11 00:29:19;;;;;;;6.10;2.25;;;17.10;99.90;;;;;;4987686;28;20054;-76
2022/06/11 00:31:45;;;;;;;4.13;3.00;;;17.10;99.90;;;;;;4979737;28;20049;-75
2022/06/11 00:34:11;;;;;;;3.70;2.70;;;17.10;99.90;;;;;;4984014;28;20049;-75
2022/06/11 00:36:38;;;;;;;3.58;2.25;;;17.00;99.90;;;;;;4971059;28;20046;-72
2022/06/11 00:39:06;;;;;;;4.75;2.13;;;17.00;99.90;;;;;;4977845;28;20054;-75
2022/06/11 00:41:35;;;;;;;4.50;1.95;;;17.00;99.90;;;;;;4968046;28;20504;-75
2022/06/11 00:44:00;;;;;;;2.88;2.13;;;16.90;99.90;;;;;;4970462;28;20124;-75
2022/06/11 00:46:39;;;;;;;3.78;2.80;;;16.90;99.90;;;;;;4970501;28;20059;-73
2022/06/11 00:49:30;;;;;;;3.42;1.90;;;16.90;99.90;;;;;;4979052;28;20054;-75
2022/06/11 00:52:30;;;;;;;4.72;1.70;;;16.90;99.90;;;;;;4965275;28;20065;-73
2022/06/11 00:55:07;;;;;;;4.78;2.47;;;16.80;99.90;;;;;;4985770;28;20092;-75
2022/06/11 00:57:38;;;;;;;4.35;1.80;;;16.80;99.90;;;;;;4967798;28;20046;-75
2022/06/11 01:00:16;;;;;;;2.90;1.92;;;16.70;99.90;;;;;;4975655;28;20066;-74
2022/06/11 01:02:47;;;;;;;5.32;2.30;;;16.70;99.90;;;;;;4973533;28;20812;-73
2022/06/11 01:05:22;;;;;;;5.57;2.40;;;16.60;99.90;;;;;;4992174;28;20146;-74
2022/06/11 01:08:03;;;;;;;4.00;1.88;;;16.60;99.90;;;;;;4978536;28;20391;-76
2022/06/11 01:10:35;;;;;;;3.03;1.60;;;16.60;99.90;;;;;;4980210;28;20158;-73
2022/06/11 01:13:12;;;;;;;5.63;1.95;;;16.50;99.90;;;;;;4980127;28;20061;-73
2022/06/11 01:15:43;;;;;;;5.65;1.92;;;16.50;99.90;;;;;;4974823;28;20054;-74
2022/06/11 01:18:19;;;;;;;3.22;1.95;;;16.40;99.90;;;;;;4975427;28;20053;-74
2022/06/11 01:21:22;;;;;;;5.95;2.03;;;16.40;99.90;;;;;;4987436;28;20140;-76
2022/06/11 01:24:25;;;;;;;4.65;1.98;;;16.30;99.90;;;;;;4974524;28;20494;-75
2022/06/11 01:27:33;;;;;;;7.38;2.20;;;16.30;99.90;;;;;;4969898;28;20069;-75
2022/06/11 01:30:07;;;;;;;3.90;1.95;;;16.30;99.90;;;;;;4977664;28;20137;-74
2022/06/11 01:33:11;;;;;;;3.65;1.77;;;16.20;99.90;;;;;;4974424;28;20927;-75
2022/06/11 01:35:50;;;;;;;3.17;1.90;;;16.10;99.90;;;;;;4970528;28;20053;-75
2022/06/11 01:38:40;;;;;;;2.45;1.90;;;16.10;99.90;;;;;;4960691;28;21669;-75
2022/06/11 01:41:24;;;;;;;4.30;1.95;;;16.10;99.90;;;;;;4979993;28;20050;-74
2022/06/11 01:43:58;;;;;;;4.50;1.88;;;16.10;99.90;;;;;;4979740;28;20050;-75
2022/06/11 01:46:29;;;;;;;4.22;2.72;;;16.00;99.90;;;;;;4981282;28;20081;-75
2022/06/11 01:49:06;;;;;;;7.88;2.70;;;16.00;99.90;;;;;;4979900;28;20712;-73
2022/06/11 01:51:57;;;;;;;4.82;1.80;;;15.90;99.90;;;;;;4985999;28;20068;-72
2022/06/11 01:54:46;;;;;;;2.45;1.80;;;15.80;99.90;;;;;;4979855;28;20149;-75
2022/06/11 01:57:59;;;;;;;4.63;1.85;;;15.80;99.90;;;;;;4983214;28;20104;-72
2022/06/11 02:00:31;;;;;;;2.53;1.77;;;15.70;99.90;;;;;;4973802;28;20199;-73
2022/06/11 02:03:23;;;;;;;4.95;2.15;;;15.70;99.90;;;;;;4978745;28;20061;-75
2022/06/11 02:06:04;;;;;;;5.18;1.90;;;15.70;99.90;;;;;;4964073;28;20054;-76
2022/06/11 02:08:58;;;;;;;7.38;2.00;;;15.70;99.90;;;;;;4990144;28;20069;-74
2022/06/11 02:11:37;;;;;;;3.58;1.75;;;15.70;99.90;;;;;;4979873;28;20050;-75
2022/06/11 02:14:12;;;;;;;6.18;1.98;;;15.70;99.90;;;;;;4966834;28;20063;-75
2022/06/11 02:17:04;;;;;;;3.92;1.88;;;15.80;99.90;;;;;;4946069;28;20136;-75
2022/06/11 02:19:58;;;;;;;6.78;1.95;;;15.80;99.90;;;;;;4982472;28;20054;-76
2022/06/11 02:22:30;;;;;;;2.92;1.70;;;15.70;99.90;;;;;;4959235;28;20066;-73
2022/06/11 02:25:11;;;;;;;3.15;2.10;;;15.70;99.90;;;;;;4969873;28;20050;-73
2022/06/11 02:27:39;;;;;;;5.22;2.22;;;15.60;99.90;;;;;;4978574;28;20057;-74
2022/06/11 02:30:08;;;;;;;5.68;2.80;;;15.60;99.90;;;;;;4974677;28;20129;-75
2022/06/11 02:32:34;;;;;;;3.55;2.00;;;15.50;99.90;;;;;;4982721;28;20107;-73
2022/06/11 02:35:04;;;;;;;2.20;1.85;;;15.40;99.90;;;;;;4993170;28;20068;-73
2022/06/11 02:37:38;;;;;;;4.85;1.60;;;15.30;99.90;;;;;;4992096;28;20092;-74
2022/06/11 02:40:09;;;;;;;4.50;2.30;;;15.30;99.90;;;;;;4974491;28;20042;-73
2022/06/11 02:42:35;;;;;;;5.00;2.15;;;15.20;99.90;;;;;;4973670;28;20120;-76
2022/06/11 02:45:01;;;;;;;1.90;1.67;;;15.10;99.90;;;;;;4986899;28;20042;-73
2022/06/11 02:47:27;;;;;;;4.72;2.30;;;15.10;99.90;;;;;;4973715;28;20049;-74
2022/06/11 02:49:54;;;;;;;2.28;1.80;;;15.10;99.90;;;;;;4969832;28;20411;-77
2022/06/11 02:52:22;;;;;;;3.60;1.67;;;15.00;99.90;;;;;;4977344;28;20048;-73
2022/06/11 02:54:50;;;;;;;3.47;1.75;;;15.00;99.90;;;;;;4976372;28;20082;-76
2022/06/11 02:57:25;;;;;;;7.43;2.50;;;15.00;99.90;;;;;;4976942;28;20050;-73
2022/06/11 02:59:52;;;;;;;3.67;2.90;;;15.00;99.90;;;;;;4965536;28;20077;-72
2022/06/11 03:02:18;;;;;;;5.75;2.38;;;15.00;99.90;;;;;;4990053;28;20054;-73
2022/06/11 03:04:44;;;;;;;4.60;2.35;;;15.00;99.90;;;;;;4993376;28;20042;-73
2022/06/11 03:07:10;;;;;;;5.40;2.30;;;15.00;99.90;;;;;;4982879;28;20054;-74
2022/06/11 03:09:37;;;;;;;3.42;2.35;;;15.00;99.90;;;;;;4990105;28;20479;-72
2022/06/11 03:12:05;;;;;;;3.35;2.53;;;14.90;99.90;;;;;;4983043;28;20068;-73
2022/06/11 03:14:31;;;;;;;4.10;2.30;;;14.90;99.90;;;;;;4995709;28;20832;-73
2022/06/11 03:16:57;;;;;;;3.72;2.97;;;14.80;99.90;;;;;;4991585;28;20064;-73
2022/06/11 03:19:22;;;;;;;5.78;2.88;;;14.80;99.90;;;;;;4995046;28;20051;-73
2022/06/11 03:21:51;;;;;;;9.88;4.10;;;14.80;99.90;;;;;;4985372;28;20035;-75
2022/06/11 03:24:17;;;;;;;6.20;2.78;;;14.80;99.90;;;;;;4979144;28;20046;-72
2022/06/11 03:26:43;;;;;;;7.72;3.35;;;14.80;99.90;;;;;;4991328;28;20645;-73
2022/06/11 03:29:10;;;;;;;6.15;3.53;;;14.80;99.90;;;;;;4982183;28;20128;-75
2022/06/11 03:31:36;;;;;;;7.03;3.90;;;14.80;99.90;;;;;;4992589;28;20050;-72
2022/06/11 03:34:03;;;;;;;5.22;3.25;;;14.80;99.90;;;;;;4981265;28;20046;-72
2022/06/11 03:36:29;;;;;;;4.95;3.83;;;14.80;99.90;;;;;;4980565;28;20065;-75
2022/06/11 03:38:55;;;;;;;8.15;4.32;;;14.80;99.90;;;;;;4975564;28;20777;-73
2022/06/11 03:41:21;;;;;;;5.35;3.10;;;14.90;99.90;;;;;;4985253;28;20050;-73
2022/06/11 03:43:49;;;;;;;7.35;3.30;;;14.90;99.90;;;;;;4996658;28;20046;-73
2022/06/11 03:46:15;;;;;;;7.10;3.47;;;14.90;99.90;;;;;;4986273;28;20489;-73
2022/06/11 03:48:41;;;;;;;4.43;3.72;;;14.90;99.90;;;;;;4977266;28;20042;-74
2022/06/11 03:51:07;;;;;;;12.32;4.00;;;15.00;99.90;;;;;;4981728;28;20842;-73
2022/06/11 03:53:34;;;;;;;7.72;3.95;;;15.00;99.90;;;;;;4983493;28;20054;-75
2022/06/11 03:56:00;;;;;;;7.28;3.17;;;15.00;99.90;;;;;;4987412;28;20131;-75
2022/06/11 03:58:26;;;;;;;8.50;3.58;;;15.00;99.90;;;;;;4980233;28;20053;-73
2022/06/11 04:03:38;;;;;;;5.10;3.47;;;15.10;99.90;;;;;;4985558;28;20089;-73
2022/06/11 04:06:04;;;;;;;7.72;3.60;;;15.20;99.90;;;;;;4970400;28;20425;-73
2022/06/11 04:08:31;;;;;;;9.65;3.30;;;15.30;99.90;;;;;;4985307;28;20050;-73
2022/06/11 04:10:58;;;;;;;6.28;3.67;;;15.40;99.90;;;;;;4970451;28;20065;-74
2022/06/11 04:13:26;;;;;;;6.72;3.60;;;15.40;99.90;;;;;;4980581;28;20165;-73
2022/06/11 04:15:52;;;;;;;7.63;3.83;;;15.40;99.90;;;;;;4981788;28;20395;-73
2022/06/11 04:18:28;;;;;;;7.20;4.40;;;15.40;99.90;;;;;;4962947;28;20484;-73
2022/06/11 04:20:55;;;;;;;9.88;3.83;;;15.40;99.90;;;;;;4979325;28;20572;-73
2022/06/11 04:23:24;;;;;;;9.85;3.70;;;15.40;99.90;;;;;;4976395;28;20045;-73
2022/06/11 04:25:50;;;;;;;11.73;3.58;;;15.40;99.90;;;;;;4983228;28;20054;-73
2022/06/11 04:28:16;;;;;;;6.03;3.35;;;15.40;99.90;;;;;;4980816;28;20596;-73
2022/06/11 04:30:42;;;;;;;9.85;3.50;;;15.50;99.90;;;;;;4980978;28;20344;-73
2022/06/11 04:33:07;;;;;;;5.82;3.90;;;15.50;99.90;;;;;;4977949;28;20502;-73
2022/06/11 04:35:33;;;;;;;11.30;4.85;;;15.50;99.90;;;;;;4971997;28;20060;-75
2022/06/11 04:37:59;;;;;;;8.95;5.43;;;15.50;99.90;;;;;;4993493;28;20177;-74
2022/06/11 04:40:25;;;;;;;10.52;5.03;;;15.60;99.90;;;;;;4985207;28;20386;-73
2022/06/11 04:42:51;;;;;;;9.73;6.20;;;15.70;99.90;;;;;;4980809;28;20051;-75
2022/06/11 04:45:18;;;;;;;10.85;6.40;;;15.70;99.90;;;;;;4980714;28;20057;-73
2022/06/11 04:47:45;;;;;;;12.10;7.22;;;15.70;99.90;;;;;;4978608;28;20097;-73
2022/06/11 04:50:15;;;;;;;12.00;6.95;;;15.70;99.90;;;;;;4984472;28;20081;-73
2022/06/11 04:52:41;;;;;;;11.70;6.88;;;15.80;99.90;;;;;;4972384;28;20129;-73
2022/06/11 04:55:07;;;;;;;10.98;6.88;;;15.80;99.90;;;;;;4981001;28;20060;-73
2022/06/11 04:57:33;;;;;;;8.80;6.38;;;15.90;99.90;;;;;;4977913;28;20057;-74
2022/06/11 04:59:59;;;;;;;7.45;5.57;;;15.90;99.90;;;;;;4967630;28;20566;-73
2022/06/11 05:02:25;;;;;;;13.55;6.07;;;15.90;99.90;;;;;;4986487;28;20042;-74
2022/06/11 05:04:52;;;;;;;12.80;5.03;;;15.90;99.90;;;;;;4985190;28;20835;-74
2022/06/11 05:07:19;;;;;;;12.35;4.82;;;16.00;99.90;;;;;;4980294;28;20050;-74
2022/06/11 05:09:45;;;;;;;10.25;4.82;;;16.00;99.90;;;;;;4966293;28;20045;-74
2022/06/11 05:12:12;;;;;;;13.57;4.70;;;16.10;99.90;;;;;;4979734;28;20547;-73
2022/06/11 05:14:38;;;;;;;12.48;5.13;;;16.10;99.90;;;;;;4988297;28;20062;-73
2022/06/11 05:17:04;;;;;;;10.57;5.97;;;16.10;99.90;;;;;;4983142;28;20144;-70
2022/06/11 05:19:30;;;;;;;11.10;4.18;;;16.20;99.90;;;;;;4973681;28;20536;-73
2022/06/11 05:21:56;;;;;;;9.90;5.57;;;16.20;99.90;;;;;;4972918;28;20051;-73
2022/06/11 05:24:22;;;;;;;9.68;4.93;;;16.20;99.90;;;;;;4968807;28;20051;-73
2022/06/11 05:27:02;;;;;;;7.65;4.78;;;16.30;99.90;;;;;;4983856;28;20046;-73
2022/06/11 05:29:33;;;;;;;11.23;4.38;;;16.30;99.90;;;;;;4979227;28;20046;-74
2022/06/11 05:31:59;;;;;;;8.82;5.05;;;16.40;99.90;;;;;;4982812;28;20933;-73
2022/06/11 05:34:27;;;;;;;12.13;4.50;;;16.40;99.90;;;;;;4987703;28;20511;-74
2022/06/11 05:36:53;;;;;;;9.68;4.70;;;16.50;99.90;;;;;;4977546;28;20081;-74
2022/06/11 05:39:19;;;;;;;9.98;4.43;;;16.50;99.90;;;;;;4982791;28;20066;-74
2022/06/11 05:41:45;;;;;;;11.60;4.70;;;16.60;99.90;;;;;;4981294;28;20045;-74
2022/06/11 05:44:11;;;;;;;9.55;4.28;;;16.60;99.90;;;;;;4978620;28;20054;-74
2022/06/11 05:46:37;;;;;;;11.38;4.20;;;16.70;99.90;;;;;;4990121;28;20077;-74
2022/06/11 05:49:07;;;;;;;11.85;5.10;;;16.80;99.90;;;;;;4966830;28;20042;-75
2022/06/11 05:51:37;;;;;;;14.43;5.10;;;16.90;99.90;;;;;;4976525;28;20054;-74
2022/06/11 05:54:06;;;;;;;7.15;4.03;;;16.90;99.90;;;;;;4983319;28;20045;-73
2022/06/11 05:56:33;;;;;;;11.45;4.18;;;17.00;99.90;;;;;;4979742;28;20046;-74
2022/06/11 05:59:04;;;;;;;7.35;4.75;;;17.10;99.90;;;;;;4974354;28;20085;-74
2022/06/11 06:01:34;;;;;;;7.93;3.78;;;17.20;99.90;;;;;;4977751;28;20049;-74
2022/06/11 06:04:00;;;;;;;11.98;4.70;;;17.30;99.90;;;;;;4976646;28;20058;-74
2022/06/11 06:06:26;;;;;;;9.18;3.90;;;17.40;99.90;;;;;;4976716;28;20057;-74
2022/06/11 06:08:51;;;;;;;10.23;4.82;;;17.50;99.90;;;;;;4988067;28;20050;-74
2022/06/11 06:11:17;;;;;;;11.73;4.30;;;17.60;99.90;;;;;;4977079;28;20129;-75
2022/06/11 06:13:46;;;;;;;14.85;5.03;;;17.80;99.90;;;;;;4979444;28;20058;-74
2022/06/11 06:16:23;;;;;;;14.32;4.60;;;17.90;99.90;;;;;;4987615;28;20046;-77
2022/06/11 06:18:49;;;;;;;7.60;4.25;;;18.30;99.90;;;;;;4969648;28;20050;-79
2022/06/11 06:21:17;;;;;;;10.30;5.00;;;19.20;99.90;;;;;;4978772;28;20048;-79
2022/06/11 06:23:43;;;;;;;19.52;4.55;;;20.10;99.90;;;;;;4970558;28;20059;-76
2022/06/11 06:26:09;;;;;;;14.35;4.40;;;20.60;99.90;;;;;;4970709;28;20811;-79
2022/06/11 06:28:35;;;;;;;15.35;5.03;;;21.20;99.90;;;;;;4977375;28;20585;-78
2022/06/11 06:31:03;;;;;;;10.48;4.57;;;21.50;99.90;;;;;;4984854;28;20085;-78
2022/06/11 06:33:30;;;;;;;9.73;4.57;;;21.90;99.90;;;;;;4983870;28;20072;-78
2022/06/11 06:35:57;;;;;;;27.67;20.63;;;21.90;99.90;;;;;;4978900;28;20149;-75
2022/06/11 06:38:23;;;;;;;29.63;23.17;;;21.90;99.90;;;;;;4975716;28;20108;-75
2022/06/11 06:40:49;;;;;;;14.57;5.40;;;22.30;99.90;;;;;;4964134;28;20043;-75
2022/06/11 06:43:15;;;;;;;19.98;5.43;;;22.00;99.90;;;;;;4974688;28;20046;-74
2022/06/11 06:45:41;;;;;;;15.63;5.32;;;22.10;99.90;;;;;;4957028;28;20049;-75
2022/06/11 06:48:07;;;;;;;17.10;4.60;;;22.40;99.90;;;;;;4980663;28;20451;-75
2022/06/11 06:50:32;;;;;;;12.65;4.38;;;22.60;99.90;;;;;;4984212;28;20201;-74
2022/06/11 06:52:58;;;;;;;11.98;5.00;;;22.50;99.90;;;;;;4977811;28;20058;-73
2022/06/11 06:55:24;;;;;;;11.25;4.55;;;22.80;99.90;;;;;;4980253;28;20049;-74
2022/06/11 06:57:50;;;;;;;12.68;4.47;;;22.80;99.90;;;;;;4980092;28;20049;-74
2022/06/11 07:00:17;;;;;;;14.85;4.63;;;23.60;99.90;;;;;;4986304;28;20054;-73
2022/06/11 07:02:44;;;;;;;8.57;4.20;;;24.40;99.90;;;;;;4979690;28;20112;-75
2022/06/11 07:05:12;;;;;;;11.32;4.75;;;24.30;99.90;;;;;;4976387;28;20050;-74
2022/06/11 07:07:38;;;;;;;19.17;5.32;;;24.40;99.90;;;;;;4978841;28;20058;-73
2022/06/11 07:10:05;;;;;;;11.50;5.35;;;24.70;99.90;;;;;;4972083;28;20152;-74
2022/06/11 07:12:31;;;;;;;14.40;4.97;;;24.80;96.50;;;;;;4969125;28;20096;-74
2022/06/11 07:14:57;;;;;;;17.70;5.25;;;24.90;99.20;;;;;;4971354;28;20473;-74
2022/06/11 07:17:24;;;;;;;9.77;4.28;;;25.30;98.50;;;;;;4987508;28;20046;-74
2022/06/11 07:19:56;;;;;;;13.98;4.32;;;25.50;98.50;;;;;;4984146;28;20038;-74
2022/06/11 07:22:34;;;;;;;13.13;4.97;;;25.30;98.00;;;;;;4983610;28;20050;-74
2022/06/11 07:25:03;;;;;;;12.40;4.68;;;25.30;95.70;;;;;;4978134;28;20061;-74
2022/06/11 07:27:33;;;;;;;9.25;3.30;;;25.60;97.70;;;;;;4991620;28;20752;-74
2022/06/11 07:30:09;;;;;;;14.13;5.10;;;25.90;97.60;;;;;;4986194;28;20405;-77
2022/06/11 07:32:37;;;;;;;36.05;17.75;;;26.00;93.90;;;;;;4990058;28;20042;-78
2022/06/11 07:35:08;;;;;;;24.08;13.50;;;25.80;96.50;;;;;;4986698;28;20761;-75
2022/06/11 07:37:35;;;;;;;15.93;5.97;;;25.90;95.40;;;;;;4994801;28;20058;-76
2022/06/11 07:40:02;;;;;;;13.98;5.20;;;26.00;95.50;;;;;;4999082;28;20050;-75
2022/06/11 07:42:28;;;;;;;9.38;5.18;;;25.90;94.10;;;;;;4990152;28;20038;-75
2022/06/11 07:44:54;;;;;;;10.27;5.40;;;26.70;95.60;;;;;;4954159;28;20054;-78
2022/06/11 07:47:53;;;;;;;13.20;5.55;;;26.90;95.20;;;;;;4994553;28;20057;-79
2022/06/11 07:50:06;;;;;;;10.73;4.53;;;26.90;94.80;;;;;;4983026;28;20049;-78
2022/06/11 07:52:32;;;;;;;15.93;5.25;;;26.50;93.60;;;;;;4975946;28;20126;-77
2022/06/11 07:54:57;;;;;;;8.80;3.95;;;26.60;93.00;;;;;;4986869;28;20045;-78
2022/06/11 07:57:23;;;;;;;10.18;4.20;;;26.60;94.40;;;;;;4983790;28;20053;-74
2022/06/11 07:59:49;;;;;;;11.88;4.93;;;26.50;94.30;;;;;;4988392;28;20086;-75
2022/06/11 08:02:14;;;;;;;10.40;4.10;;;25.50;94.30;;;;;;4986362;28;20038;-75
2022/06/11 08:04:40;;;;;;;12.43;5.50;;;25.10;94.80;;;;;;4986151;28;20108;-77
2022/06/11 08:07:06;;;;;;;104.22;73.57;;;25.10;95.00;;;;;;4982811;28;20060;-78
2022/06/11 08:09:31;;;;;;;32.85;16.98;;;25.40;95.00;;;;;;4984437;28;20525;-73
2022/06/11 08:11:57;;;;;;;13.48;6.13;;;25.60;94.40;;;;;;4986114;28;20045;-75
2022/06/11 08:14:23;;;;;;;19.45;6.45;;;26.00;93.90;;;;;;4952348;28;20081;-74
2022/06/11 08:16:48;;;;;;;9.27;4.68;;;26.50;94.10;;;;;;4945942;28;20496;-74
2022/06/11 08:19:14;;;;;;;11.40;4.18;;;26.10;93.70;;;;;;4949286;28;20609;-77
2022/06/11 08:21:41;;;;;;;12.40;4.15;;;26.20;93.50;;;;;;4942334;28;20039;-76
2022/06/11 08:24:07;;;;;;;10.73;4.07;;;26.20;93.70;;;;;;4947984;28;20125;-76
2022/06/11 08:26:34;;;;;;;12.63;4.45;;;26.90;93.10;;;;;;4941343;28;20561;-77
2022/06/11 08:28:59;;;;;;;11.55;4.80;;;27.00;93.00;;;;;;4947673;28;20050;-76
2022/06/11 08:31:25;;;;;;;12.30;4.78;;;27.20;91.90;;;;;;4951257;28;20054;-75
2022/06/11 08:33:51;;;;;;;14.10;4.28;;;27.40;92.80;;;;;;4946898;28;20181;-76
2022/06/11 08:36:17;;;;;;;16.98;4.90;;;27.50;92.70;;;;;;4949277;28;20821;-77
2022/06/11 08:38:42;;;;;;;11.98;3.80;;;27.60;91.90;;;;;;4948749;28;20045;-75
2022/06/11 08:41:18;;;;;;;14.07;4.55;;;27.40;90.60;;;;;;4954932;28;20077;-74
2022/06/11 08:43:59;;;;;;;10.90;3.72;;;27.10;90.50;;;;;;4948537;28;20051;-74
2022/06/11 08:46:28;;;;;;;9.07;3.40;;;27.20;91.20;;;;;;4950718;28;20074;-76
2022/06/11 08:49:04;;;;;;;10.52;3.50;;;27.50;90.90;;;;;;4944999;28;20821;-76
2022/06/11 08:51:42;;;;;;;10.35;3.67;;;27.70;91.10;;;;;;4948027;28;20056;-76
2022/06/11 08:54:12;;;;;;;10.48;3.75;;;27.80;89.80;;;;;;4942250;28;20047;-75
2022/06/11 08:56:47;;;;;;;12.38;5.05;;;28.40;91.30;;;;;;4933970;28;20054;-77
2022/06/11 08:59:50;;;;;;;12.25;4.55;;;28.90;90.30;;;;;;4935054;28;20142;-76
2022/06/11 09:02:35;;;;;;;13.75;4.60;;;28.70;87.50;;;;;;4936529;28;20145;-77
2022/06/11 09:05:28;;;;;;;9.82;4.25;;;27.90;91.10;;;;;;4940028;28;20074;-80
2022/06/11 09:08:01;;;;;;;12.13;4.40;;;27.20;89.40;;;;;;4935387;28;20110;-74
2022/06/11 09:10:48;;;;;;;9.63;3.92;;;26.90;91.10;;;;;;4942450;28;20058;-75
2022/06/11 09:13:23;;;;;;;10.23;3.85;;;26.60;91.00;;;;;;4951449;28;20057;-74
2022/06/11 09:15:54;;;;;;;11.15;4.13;;;26.50;90.90;;;;;;4971123;28;20069;-71
2022/06/11 09:18:33;;;;;;;31.40;15.48;;;26.70;91.50;;;;;;4973244;28;20873;-76
2022/06/11 09:21:29;;;;;;;11.20;5.72;;;26.50;90.70;;;;;;4965397;28;20042;-76
2022/06/11 09:24:28;;;;;;;12.93;4.35;;;26.50;90.60;;;;;;4969123;28;20058;-77
2022/06/11 09:27:11;;;;;;;15.00;4.50;;;26.60;91.40;;;;;;4967442;28;20141;-76
2022/06/11 09:29:57;;;;;;;12.80;4.65;;;27.00;90.20;;;;;;4990418;28;20049;-76
2022/06/11 09:32:39;;;;;;;9.25;4.32;;;26.80;90.90;;;;;;4991564;28;20052;-76
2022/06/11 09:35:13;;;;;;;11.25;3.15;;;27.20;88.60;;;;;;4978178;28;20046;-76
2022/06/11 09:38:06;;;;;;;12.45;4.00;;;27.60;90.80;;;;;;4979614;28;20431;-77
2022/06/11 09:40:50;;;;;;;10.93;4.05;;;27.70;88.10;;;;;;4979601;28;20071;-76
2022/06/11 09:43:33;;;;;;;9.85;3.35;;;28.10;90.20;;;;;;4970216;28;20038;-77
2022/06/11 09:46:12;;;;;;;8.50;3.67;;;28.00;85.70;;;;;;4976630;28;20057;-77
2022/06/11 09:49:08;;;;;;;9.95;3.38;;;28.40;87.40;;;;;;4968493;28;20058;-75
2022/06/11 09:51:48;;;;;;;8.85;3.47;;;28.30;85.10;;;;;;4947907;28;20067;-76
2022/06/11 09:54:29;;;;;;;7.05;2.85;;;28.40;85.80;;;;;;4978851;28;20050;-76
2022/06/11 09:57:08;;;;;;;12.55;3.90;;;28.10;83.10;;;;;;4963004;28;20058;-76
2022/06/11 09:59:36;;;;;;;15.57;12.35;;;28.20;84.90;;;;;;4974983;28;20046;-79
2022/06/11 10:02:27;;;;;;;24.70;14.77;;;28.00;88.30;;;;;;4981316;28;20050;-80
2022/06/11 10:04:54;;;;;;;8.85;4.25;;;28.20;88.20;;;;;;4979464;28;20611;-78
2022/06/11 10:07:26;;;;;;;10.60;3.60;;;28.10;86.30;;;;;;4978404;28;20564;-80
2022/06/11 10:10:11;;;;;;;8.32;3.35;;;28.20;85.00;;;;;;4986057;28;20054;-76
2022/06/11 10:12:58;;;;;;;9.93;3.85;;;28.10;85.10;;;;;;4988485;28;20069;-75
2022/06/11 10:15:38;;;;;;;6.78;3.40;;;27.60;79.40;;;;;;4964083;28;20058;-76
2022/06/11 10:18:09;;;;;;;10.45;3.35;;;27.20;82.70;;;;;;4964201;28;20580;-77
2022/06/11 10:20:38;;;;;;;7.15;3.20;;;27.00;84.60;;;;;;4976487;28;20050;-79
2022/06/11 10:23:10;;;;;;;9.80;2.95;;;27.00;82.80;;;;;;4951626;28;20383;-75
2022/06/11 10:25:56;;;;;;;30.73;20.30;;;27.00;83.70;;;;;;4965013;28;20054;-77
2022/06/11 10:28:27;;;;;;;12.20;7.18;;;27.20;85.40;;;;;;4985989;28;20087;-82
2022/06/11 10:31:28;;;;;;;7.63;2.95;;;27.70;85.30;;;;;;4988630;28;20058;-86
2022/06/11 10:33:58;;;;;;;6.85;2.67;;;27.30;79.70;;;;;;4976764;28;20056;-83
2022/06/11 10:36:41;;;;;;;8.45;2.95;;;27.50;83.90;;;;;;4989518;28;20050;-84
2022/06/11 10:39:11;;;;;;;7.80;2.72;;;27.80;83.80;;;;;;4976903;28;20058;-87
2022/06/11 10:42:09;;;;;;;9.32;2.83;;;28.00;83.40;;;;;;4983239;28;20057;-84
2022/06/11 10:44:49;;;;;;;8.65;3.40;;;27.80;81.80;;;;;;4986791;28;20108;-87
2022/06/11 10:47:26;;;;;;;7.53;2.88;;;28.00;80.00;;;;;;4981538;28;20125;-85
2022/06/11 10:50:21;;;;;;;34.45;28.15;;;28.20;80.00;;;;;;4989378;28;20055;-74
2022/06/11 10:53:07;;;;;;;7.50;3.60;;;28.30;82.40;;;;;;4974501;28;20050;-78
2022/06/11 10:55:53;;;;;;;4.35;2.78;;;28.20;80.00;;;;;;4974859;28;20057;-77
2022/06/11 10:58:41;;;;;;;24.45;16.48;;;27.90;79.90;;;;;;4963025;28;20814;-80
2022/06/11 11:01:30;;;;;;;23.55;17.05;;;27.80;79.20;;;;;;4978283;28;20057;-76
2022/06/11 11:04:17;;;;;;;5.18;2.47;;;27.60;75.30;;;;;;4981483;28;20053;-74
2022/06/11 11:06:44;;;;;;;4.28;2.40;;;26.60;72.90;;;;;;4967828;28;20086;-76
2022/06/11 11:09:21;;;;;;;6.20;2.38;;;26.70;77.70;;;;;;4972335;28;21628;-77
2022/06/11 11:11:53;;;;;;;5.90;2.75;;;26.50;75.10;;;;;;4978708;28;20046;-75
2022/06/11 11:14:32;;;;;;;6.32;2.92;;;26.50;77.20;;;;;;4976693;28;20062;-75
2022/06/11 11:17:03;;;;;;;7.07;3.33;;;26.50;77.50;;;;;;4975165;28;20058;-74
2022/06/11 11:19:39;;;;;;;6.90;2.30;;;26.40;75.50;;;;;;4984482;28;20096;-72
2022/06/11 11:22:04;;;;;;;6.47;2.25;;;26.40;75.90;;;;;;4985763;28;20042;-77
2022/06/11 11:24:50;;;;;;;12.05;3.13;;;26.30;76.60;;;;;;4982598;28;20053;-77
2022/06/11 11:27:23;;;;;;;4.45;2.25;;;26.30;78.00;;;;;;4979221;28;20768;-74
2022/06/11 11:30:00;;;;;;;;;;;26.30;78.70;;;;;;4980096;28;20042;-78
2022/06/11 11:32:35;;;;;;;6.95;2.80;;;26.30;76.40;;;;;;4981079;28;20076;-79
2022/06/11 11:35:19;;;;;;;7.70;2.72;;;26.00;75.40;;;;;;4989557;28;20046;-78
2022/06/11 11:37:55;;;;;;;9.98;2.80;;;25.70;74.70;;;;;;4948788;28;20045;-77
2022/06/11 11:40:24;;;;;;;10.02;3.05;;;25.60;77.10;;;;;;4978608;28;21593;-75
2022/06/11 11:42:55;;;;;;;8.52;3.05;;;25.60;78.30;;;;;;4973827;28;20941;-78
2022/06/11 11:45:22;;;;;;;5.80;2.35;;;25.50;78.90;;;;;;4981264;28;20048;-77
2022/06/11 11:47:51;;;;;;;6.22;2.95;;;25.20;77.30;;;;;;4974917;28;20061;-75
2022/06/11 11:50:38;;;;;;;9.70;2.67;;;25.20;77.10;;;;;;4983220;28;20072;-75
2022/06/11 11:53:25;;;;;;;6.30;2.22;;;24.90;77.80;;;;;;4954656;28;20560;-75
2022/06/11 11:56:04;;;;;;;5.90;2.42;;;25.20;79.60;;;;;;4973470;28;20054;-78
2022/06/11 11:58:34;;;;;;;7.78;2.50;;;24.90;78.50;;;;;;4975844;28;20046;-78
2022/06/11 12:01:09;;;;;;;7.30;2.45;;;25.00;77.80;;;;;;4976375;28;20339;-79
2022/06/11 12:03:59;;;;;;;6.90;2.30;;;25.00;77.90;;;;;;4977049;28;20043;-77
2022/06/11 12:06:37;;;;;;;6.53;2.53;;;25.00;75.70;;;;;;4984957;28;20053;-81
2022/06/11 12:09:21;;;;;;;58.33;49.03;;;25.20;78.30;;;;;;4982510;28;20605;-75
2022/06/11 12:12:08;;;;;;;8.25;3.35;;;25.20;78.20;;;;;;4983020;28;20053;-77
2022/06/11 12:14:40;;;;;;;7.70;3.08;;;25.30;77.90;;;;;;4967221;28;20444;-77
2022/06/11 12:17:22;;;;;;;10.32;2.97;;;25.20;77.70;;;;;;4968524;28;20049;-78
2022/06/11 12:19:59;;;;;;;5.80;2.58;;;25.40;75.10;;;;;;4969764;28;20124;-80
2022/06/11 12:22:36;;;;;;;5.68;2.20;;;25.40;76.60;;;;;;4967592;28;20043;-76
2022/06/11 12:25:04;;;;;;;14.35;4.05;;;25.40;76.10;;;;;;4969259;28;20054;-78
2022/06/11 12:27:41;;;;;;;8.38;3.38;;;25.40;77.00;;;;;;4971549;28;20057;-78
2022/06/11 12:30:21;;;;;;;7.88;2.65;;;25.60;77.20;;;;;;4973815;28;20141;-78
2022/06/11 12:32:48;;;;;;;9.57;2.33;;;25.50;76.60;;;;;;4982770;28;20050;-75
2022/06/11 12:35:17;;;;;;;5.50;2.55;;;25.60;77.30;;;;;;4971616;28;20046;-75
2022/06/11 12:38:11;;;;;;;9.15;2.83;;;25.20;75.70;;;;;;4961099;28;20086;-75
2022/06/11 12:40:50;;;;;;;6.65;2.67;;;25.00;75.50;;;;;;4970259;28;20589;-78
2022/06/11 12:43:54;;;;;;;6.63;2.63;;;25.10;76.50;;;;;;4971234;28;20038;-77
2022/06/11 12:46:46;;;;;;;8.48;2.53;;;25.20;75.80;;;;;;4968447;28;20062;-78
2022/06/11 12:49:29;;;;;;;10.60;3.10;;;25.30;76.40;;;;;;4969687;28;20120;-77
2022/06/11 12:52:33;;;;;;;7.38;2.70;;;25.50;76.30;;;;;;4962741;28;20705;-77
2022/06/11 12:55:15;;;;;;;;;;;25.50;77.40;;;;;;4967335;28;20058;-79
2022/06/11 12:58:02;;;;;;;9.15;2.55;;;25.50;76.20;;;;;;4974379;28;19925;-81
2022/06/11 13:00:38;;;;;;;6.20;2.72;;;25.60;78.00;;;;;;4971038;28;20046;-77
2022/06/11 13:03:25;;;;;;;7.65;2.40;;;25.50;77.20;;;;;;4979966;28;20569;-78
2022/06/11 13:06:13;;;;;;;7.65;2.60;;;25.30;75.70;;;;;;4982753;28;20050;-79
2022/06/11 13:09:23;;;;;;;7.13;2.63;;;25.10;75.90;;;;;;4978793;28;20151;-76
2022/06/11 13:12:13;;;;;;;7.40;2.88;;;25.10;76.00;;;;;;4967491;28;20129;-75
2022/06/11 13:15:19;;;;;;;6.65;2.42;;;25.20;75.30;;;;;;4974716;28;20061;-79
2022/06/11 13:18:06;;;;;;;5.88;2.50;;;25.40;76.30;;;;;;4977477;28;20054;-78
2022/06/11 13:20:42;;;;;;;4.45;2.20;;;25.60;78.30;;;;;;4977721;28;20046;-77